Time;durP1;ratioP1;P1;durP2;ratioP2;P2;SDS_P1;SDS_P2;PMS_P1;PMS_P2;Temp;Humidity;BMP_temperature;BMP_pressure;BME280_temperature;BME280_humidity;BME280_pressure;Samples;Min_cycle;Max_cycle;Signal;HPM_P1;HPM_P2
2023/09/25 00:00:34;;;;;;;3.87;2.13;;;;;;;12.47;100.00;101833.66;5016475;28;20476;-77
2023/09/25 00:03:01;;;;;;;4.65;2.17;;;;;;;12.32;100.00;101845.88;5022261;28;20074;-77
2023/09/25 00:05:28;;;;;;;9.02;2.15;;;;;;;12.48;100.00;101863.97;5017893;28;20029;-77
2023/09/25 00:07:54;;;;;;;3.60;2.45;;;;;;;12.38;100.00;101847.94;5021124;28;20044;-77
2023/09/25 00:10:20;;;;;;;;;;;;;;;12.50;100.00;101851.28;5019201;28;20033;-76
2023/09/25 00:12:45;;;;;;;4.30;2.80;;;;;;;12.24;100.00;101830.53;5017209;28;20010;-75
2023/09/25 00:15:11;;;;;;;6.37;3.03;;;;;;;12.31;100.00;101841.50;5023151;28;20092;-75
2023/09/25 00:17:37;;;;;;;3.57;2.03;;;;;;;12.29;100.00;101832.75;5016152;28;20834;-75
2023/09/25 00:20:04;;;;;;;9.27;2.72;;;;;;;12.28;100.00;101831.94;5016819;28;20017;-75
2023/09/25 00:22:30;;;;;;;6.28;2.33;;;;;;;12.30;100.00;101831.78;5013297;28;20065;-77
2023/09/25 00:24:56;;;;;;;;;;;;;;;12.27;100.00;101832.06;5020663;28;20517;-74
2023/09/25 00:27:22;;;;;;;6.03;2.72;;;;;;;12.20;100.00;101838.03;5016707;28;19913;-76
2023/09/25 00:29:47;;;;;;;3.53;2.03;;;;;;;12.19;100.00;101835.47;5001283;28;20038;-77
2023/09/25 00:32:13;;;;;;;5.07;2.88;;;;;;;12.15;100.00;101850.13;5016564;28;20021;-77
2023/09/25 00:34:39;;;;;;;6.53;3.05;;;;;;;12.12;100.00;101832.53;5018121;28;20040;-76
2023/09/25 00:37:04;;;;;;;3.73;2.47;;;;;;;12.11;100.00;101840.75;5019050;28;20025;-76
2023/09/25 00:39:30;;;;;;;4.40;2.67;;;;;;;12.11;100.00;101832.72;5001021;28;20037;-76
2023/09/25 00:41:56;;;;;;;;;;;;;;;12.24;100.00;101841.22;5019181;28;20128;-75
2023/09/25 00:44:22;;;;;;;4.78;2.60;;;;;;;12.16;100.00;101793.78;5029898;28;20424;-75
2023/09/25 00:46:48;;;;;;;;;;;;;;;12.03;100.00;101806.66;5014859;28;20345;-77
2023/09/25 00:49:14;;;;;;;2.88;2.40;;;;;;;12.03;100.00;101814.69;5015713;28;19940;-76
2023/09/25 00:51:42;;;;;;;7.43;2.55;;;;;;;12.00;100.00;101807.78;4998387;28;20418;-76
2023/09/25 00:54:08;;;;;;;7.25;2.72;;;;;;;12.02;100.00;101807.66;5015330;28;20039;-77
2023/09/25 00:56:34;;;;;;;7.87;3.10;;;;;;;12.01;100.00;101819.31;5014127;28;20109;-77
2023/09/25 00:59:00;;;;;;;4.45;2.65;;;;;;;11.97;100.00;101796.53;5016128;28;20061;-76
2023/09/25 01:01:25;;;;;;;3.28;2.42;;;;;;;12.08;100.00;101807.06;5003279;28;20057;-77
2023/09/25 01:03:51;;;;;;;5.10;2.40;;;;;;;12.01;100.00;101805.94;5015661;28;20085;-75
2023/09/25 01:06:17;;;;;;;5.40;2.60;;;;;;;12.05;100.00;101810.03;5015195;28;20040;-77
2023/09/25 01:08:43;;;;;;;;;;;;;;;12.04;100.00;101803.00;5014635;28;20456;-77
2023/09/25 01:11:09;;;;;;;3.72;2.80;;;;;;;11.99;100.00;101790.06;5032958;28;19955;-76
2023/09/25 01:13:35;;;;;;;4.00;2.75;;;;;;;12.11;100.00;101804.09;4999150;28;20121;-77
2023/09/25 01:16:01;;;;;;;5.87;3.03;;;;;;;12.08;100.00;101777.63;4999350;28;20152;-76
2023/09/25 01:18:27;;;;;;;6.05;2.50;;;;;;;11.97;100.00;101785.84;5017326;28;20489;-77
2023/09/25 01:20:52;;;;;;;5.70;2.63;;;;;;;11.94;100.00;101784.31;5017274;28;20014;-77
2023/09/25 01:23:18;;;;;;;6.17;2.53;;;;;;;11.91;100.00;101789.09;5013646;28;20120;-76
2023/09/25 01:25:43;;;;;;;3.67;2.47;;;;;;;12.00;100.00;101782.84;5000626;28;20026;-77
2023/09/25 01:28:09;;;;;;;4.07;2.97;;;;;;;11.89;100.00;101781.19;5013509;28;20409;-76
2023/09/25 01:30:34;;;;;;;4.57;3.03;;;;;;;11.90;100.00;101804.31;4983225;28;20032;-76
2023/09/25 01:33:00;;;;;;;6.03;2.80;;;;;;;11.87;100.00;101790.31;5019037;28;20030;-77
2023/09/25 01:35:26;;;;;;;8.30;2.10;;;;;;;11.80;100.00;101785.56;4997102;28;20030;-76
2023/09/25 01:38:00;;;;;;;3.83;2.33;;;;;;;11.84;100.00;101800.31;5014933;28;20044;-76
2023/09/25 01:40:26;;;;;;;5.05;2.08;;;;;;;11.86;100.00;101800.19;4997060;28;20061;-77
2023/09/25 01:42:51;;;;;;;5.68;2.92;;;;;;;11.79;100.00;101777.69;5015947;28;20038;-76
2023/09/25 01:45:19;;;;;;;7.03;3.07;;;;;;;11.75;100.00;101787.84;5014851;28;20033;-76
2023/09/25 01:47:50;;;;;;;5.03;2.58;;;;;;;11.84;100.00;101788.78;5016183;28;20046;-76
2023/09/25 01:50:20;;;;;;;3.67;2.53;;;;;;;11.89;100.00;101764.31;5015142;28;20037;-75
2023/09/25 01:52:49;;;;;;;6.72;2.80;;;;;;;11.78;100.00;101743.91;5012811;28;20109;-76
2023/09/25 01:55:16;;;;;;;4.13;2.20;;;;;;;11.88;100.00;101751.94;5002101;28;20042;-75
2023/09/25 01:57:42;;;;;;;4.20;2.78;;;;;;;11.85;100.00;101745.00;5014227;28;20108;-77
2023/09/25 02:00:09;;;;;;;6.25;2.80;;;;;;;11.66;100.00;101726.31;5014229;28;20021;-77
2023/09/25 02:02:37;;;;;;;6.88;2.28;;;;;;;11.76;100.00;101738.69;5012369;28;20045;-76
2023/09/25 02:05:03;;;;;;;4.28;2.25;;;;;;;11.82;100.00;101707.81;5017359;28;20560;-76
2023/09/25 02:07:33;;;;;;;2.83;2.50;;;;;;;11.87;100.00;101691.31;5007485;28;20036;-76
2023/09/25 02:09:59;;;;;;;3.92;2.38;;;;;;;11.91;100.00;101674.84;5003786;28;20108;-77
2023/09/25 02:12:25;;;;;;;8.87;2.50;;;;;;;11.92;100.00;101655.16;5004535;28;20491;-77
2023/09/25 02:14:52;;;;;;;3.42;2.50;;;;;;;11.92;100.00;101648.97;5016727;28;20650;-75
2023/09/25 02:17:18;;;;;;;4.85;3.03;;;;;;;11.99;100.00;101639.34;5012240;28;20030;-76
2023/09/25 02:19:44;;;;;;;4.80;2.40;;;;;;;11.92;100.00;101632.91;4999136;28;20048;-76
2023/09/25 02:22:10;;;;;;;4.85;3.28;;;;;;;11.87;100.00;101632.47;5012872;28;20037;-76
2023/09/25 02:24:36;;;;;;;6.13;2.42;;;;;;;11.93;100.00;101630.06;4998059;28;20113;-77
2023/09/25 02:27:02;;;;;;;7.88;2.40;;;;;;;11.89;100.00;101595.72;5015188;28;20133;-76
2023/09/25 02:29:28;;;;;;;3.53;2.47;;;;;;;11.89;100.00;101603.75;5011681;28;20101;-77
2023/09/25 02:31:54;;;;;;;5.28;3.22;;;;;;;11.90;100.00;101616.16;5014446;28;20167;-76
2023/09/25 02:34:20;;;;;;;6.13;2.90;;;;;;;11.82;100.00;101609.69;5014194;28;20100;-76
2023/09/25 02:36:45;;;;;;;5.45;2.75;;;;;;;11.84;100.00;101610.34;4997258;28;20038;-76
2023/09/25 02:39:11;;;;;;;4.57;2.40;;;;;;;11.86;100.00;101628.13;5013412;28;20033;-73
2023/09/25 02:41:40;;;;;;;4.55;2.67;;;;;;;11.74;100.00;101620.28;4995853;28;20073;-76
2023/09/25 02:44:05;;;;;;;4.57;2.72;;;;;;;11.79;100.00;101622.50;5013137;28;20037;-76
2023/09/25 02:46:31;;;;;;;5.82;2.67;;;;;;;11.87;100.00;101619.09;4999465;28;20034;-75
2023/09/25 02:48:56;;;;;;;5.00;2.30;;;;;;;11.82;100.00;101612.38;4999490;28;20045;-76
2023/09/25 02:51:22;;;;;;;5.47;2.30;;;;;;;11.81;100.00;101616.00;5011750;28;20032;-76
2023/09/25 02:53:47;;;;;;;4.97;2.43;;;;;;;11.76;100.00;101631.69;5014087;28;20096;-77
2023/09/25 02:56:13;;;;;;;5.37;2.90;;;;;;;11.69;100.00;101646.63;5013547;28;20299;-76
2023/09/25 02:58:38;;;;;;;7.00;3.47;;;;;;;11.67;100.00;101656.63;4995937;28;20038;-77
2023/09/25 03:01:04;;;;;;;6.47;3.00;;;;;;;11.60;100.00;101656.38;5015575;28;20018;-77
2023/09/25 03:03:29;;;;;;;4.78;2.78;;;;;;;11.49;100.00;101672.59;5010090;28;20133;-76
2023/09/25 03:05:55;;;;;;;3.75;2.63;;;;;;;11.48;100.00;101704.84;5009230;28;20105;-76
2023/09/25 03:08:21;;;;;;;6.40;3.25;;;;;;;11.41;100.00;101713.44;5011943;28;20041;-75
2023/09/25 03:10:46;;;;;;;4.65;2.90;;;;;;;11.47;100.00;101737.91;4997207;28;20540;-77
2023/09/25 03:13:15;;;;;;;4.77;3.03;;;;;;;11.50;100.00;101737.66;4996937;28;20041;-76
2023/09/25 03:15:40;;;;;;;4.32;2.78;;;;;;;11.43;100.00;101734.72;4996709;28;20309;-76
2023/09/25 03:18:06;;;;;;;3.10;2.80;;;;;;;11.40;100.00;101743.88;4997222;28;20515;-74
2023/09/25 03:20:31;;;;;;;4.30;2.65;;;;;;;11.45;100.00;101740.75;4996641;28;20033;-76
2023/09/25 03:22:56;;;;;;;4.60;3.03;;;;;;;11.30;100.00;101745.69;5014333;28;20296;-76
2023/09/25 03:25:22;;;;;;;5.80;3.10;;;;;;;11.22;100.00;101750.91;5018401;28;20033;-76
2023/09/25 03:27:49;;;;;;;4.15;2.55;;;;;;;11.14;100.00;101769.47;4997490;28;20042;-76
2023/09/25 03:30:15;;;;;;;4.18;3.30;;;;;;;11.16;100.00;101781.72;4997031;28;20404;-75
2023/09/25 03:32:44;;;;;;;4.55;2.78;;;;;;;11.26;100.00;101792.44;4995786;28;20598;-74
2023/09/25 03:35:10;;;;;;;5.65;3.10;;;;;;;11.27;100.00;101775.38;5001056;28;20066;-76
2023/09/25 03:37:36;;;;;;;;;;;;;;;11.29;100.00;101792.13;4998104;28;20026;-75
2023/09/25 03:40:02;;;;;;;;;;;;;;;11.20;100.00;101771.59;4998468;28;19924;-76
2023/09/25 03:42:28;;;;;;;7.32;3.28;;;;;;;11.17;100.00;101786.09;5000161;28;19916;-76
2023/09/25 03:44:54;;;;;;;4.50;3.60;;;;;;;11.26;100.00;101794.22;5013754;28;20026;-75
2023/09/25 03:47:21;;;;;;;4.38;3.60;;;;;;;11.23;100.00;101754.44;5013109;28;20519;-76
2023/09/25 03:49:47;;;;;;;4.32;2.97;;;;;;;11.21;100.00;101775.94;4995964;28;20117;-76
2023/09/25 03:52:12;;;;;;;5.77;3.67;;;;;;;11.17;100.00;101788.75;5012645;28;20029;-77
2023/09/25 03:54:37;;;;;;;4.23;3.10;;;;;;;11.20;100.00;101798.31;4995391;28;20485;-76
2023/09/25 03:57:03;;;;;;;10.50;3.50;;;;;;;11.24;100.00;101799.75;5014237;28;20060;-75
2023/09/25 03:59:28;;;;;;;7.27;3.17;;;;;;;11.17;100.00;101798.63;5011782;28;20067;-76
2023/09/25 04:01:53;;;;;;;5.43;3.03;;;;;;;11.20;100.00;101795.66;5016440;28;20037;-76
2023/09/25 04:04:19;;;;;;;4.90;3.57;;;;;;;11.23;100.00;101794.53;5014484;28;20066;-77
2023/09/25 04:06:44;;;;;;;5.10;3.70;;;;;;;11.17;100.00;101788.75;5017968;28;20045;-76
2023/09/25 04:09:10;;;;;;;3.73;2.80;;;;;;;11.25;100.00;101795.22;5017515;28;20178;-77
2023/09/25 04:11:35;;;;;;;4.13;3.08;;;;;;;11.18;100.00;101789.59;5015226;28;20398;-76
2023/09/25 04:14:02;;;;;;;4.40;3.30;;;;;;;11.11;100.00;101793.81;5017767;28;20076;-74
2023/09/25 04:16:28;;;;;;;;;;;;;;;11.15;100.00;101795.25;5016343;28;20132;-77
2023/09/25 04:18:54;;;;;;;4.90;3.78;;;;;;;11.03;100.00;101807.91;5016468;28;20371;-76
2023/09/25 04:21:21;;;;;;;7.43;4.15;;;;;;;11.10;100.00;101803.69;5020488;28;20018;-75
2023/09/25 04:23:47;;;;;;;9.35;4.53;;;;;;;11.09;100.00;101817.16;5016320;28;20044;-76
2023/09/25 04:26:12;;;;;;;4.20;3.22;;;;;;;11.05;100.00;101813.06;5016473;28;20025;-76
2023/09/25 04:28:40;;;;;;;6.45;3.50;;;;;;;11.00;100.00;101802.81;5015404;28;20535;-76
2023/09/25 04:31:06;;;;;;;5.43;3.55;;;;;;;11.10;100.00;101824.22;5018776;28;20532;-75
2023/09/25 04:33:32;;;;;;;7.20;3.60;;;;;;;11.15;100.00;101804.09;5013107;28;20400;-76
2023/09/25 04:36:01;;;;;;;11.15;3.53;;;;;;;11.13;100.00;101792.69;5017806;28;20044;-76
2023/09/25 04:38:30;;;;;;;6.70;3.28;;;;;;;11.10;100.00;101776.13;5014564;28;20029;-75
2023/09/25 04:40:56;;;;;;;9.57;3.63;;;;;;;11.02;100.00;101760.75;5005328;28;20030;-75
2023/09/25 04:43:22;;;;;;;4.93;3.50;;;;;;;11.04;100.00;101782.00;5015737;28;20407;-75
2023/09/25 04:45:47;;;;;;;4.65;3.20;;;;;;;11.15;100.00;101789.88;4999644;28;20030;-76
2023/09/25 04:48:13;;;;;;;7.75;3.72;;;;;;;11.18;100.00;101760.19;5015569;28;20100;-76
2023/09/25 04:50:40;;;;;;;6.10;3.10;;;;;;;11.20;100.00;101755.56;5014808;28;20041;-77
2023/09/25 04:53:09;;;;;;;7.47;3.95;;;;;;;11.18;100.00;101736.16;5017866;28;20531;-75
2023/09/25 04:55:36;;;;;;;7.75;4.18;;;;;;;11.13;100.00;101733.06;5018052;28;20508;-76
2023/09/25 04:58:02;;;;;;;6.35;4.03;;;;;;;11.13;100.00;101743.75;5018097;28;20095;-76
2023/09/25 05:00:27;;;;;;;6.03;3.60;;;;;;;11.17;100.00;101746.00;5015186;28;20033;-76
2023/09/25 05:02:55;;;;;;;6.10;3.63;;;;;;;11.24;100.00;101754.28;5016428;28;20027;-77
2023/09/25 05:05:21;;;;;;;6.07;3.90;;;;;;;11.20;100.00;101723.47;5016047;28;20052;-75
2023/09/25 05:07:49;;;;;;;9.23;3.67;;;;;;;11.25;100.00;101731.91;4998326;28;20564;-76
2023/09/25 05:10:25;;;;;;;6.72;3.70;;;;;;;11.33;100.00;101712.47;5016111;28;20040;-76
2023/09/25 05:12:52;;;;;;;5.20;4.00;;;;;;;11.22;100.00;101708.16;5014880;28;20033;-75
2023/09/25 05:15:18;;;;;;;4.60;3.90;;;;;;;11.25;100.00;101691.81;5016117;28;20025;-75
2023/09/25 05:17:45;;;;;;;5.10;3.90;;;;;;;11.23;100.00;101707.16;5015166;28;20041;-76
2023/09/25 05:20:18;;;;;;;9.30;3.95;;;;;;;11.23;100.00;101725.03;5016863;28;20025;-77
2023/09/25 05:22:51;;;;;;;7.55;4.50;;;;;;;11.22;100.00;101732.22;5014570;28;20034;-75
2023/09/25 05:25:18;;;;;;;6.18;4.03;;;;;;;11.08;100.00;101706.75;5015826;28;20038;-76
2023/09/25 05:27:45;;;;;;;5.57;3.90;;;;;;;11.19;100.00;101754.72;5013136;28;20508;-75
2023/09/25 05:30:12;;;;;;;6.95;4.47;;;;;;;11.18;100.00;101746.84;5015153;28;20573;-76
2023/09/25 05:32:43;;;;;;;5.50;3.90;;;;;;;11.18;100.00;101742.31;5013581;28;20029;-76
2023/09/25 05:35:09;;;;;;;6.40;4.75;;;;;;;11.12;100.00;101726.00;5015379;28;20036;-76
2023/09/25 05:37:35;;;;;;;;;;;;;;;11.28;100.00;101739.63;5014051;28;20018;-76
2023/09/25 05:40:02;;;;;;;7.28;4.53;;;;;;;11.29;100.00;101722.63;5017534;28;19917;-75
2023/09/25 05:42:27;;;;;;;6.38;4.35;;;;;;;11.37;100.00;101754.81;5013670;28;20030;-77
2023/09/25 05:44:53;;;;;;;7.80;4.37;;;;;;;11.34;100.00;101731.06;5016269;28;20042;-76
2023/09/25 05:47:18;;;;;;;5.93;4.80;;;;;;;11.47;100.00;101735.25;5019558;28;20276;-76
2023/09/25 05:49:43;;;;;;;5.97;4.07;;;;;;;11.62;100.00;101725.78;5014923;28;20037;-75
2023/09/25 05:52:09;;;;;;;6.20;4.67;;;;;;;11.53;100.00;101700.75;5016311;28;20076;-77
2023/09/25 05:54:34;;;;;;;6.00;4.57;;;;;;;11.67;100.00;101678.03;5013856;28;20092;-76
2023/09/25 05:56:59;;;;;;;6.30;4.47;;;;;;;11.81;100.00;101690.94;5015645;28;20105;-76
2023/09/25 05:59:25;;;;;;;5.63;4.27;;;;;;;11.76;100.00;101666.47;5013517;28;20033;-76
2023/09/25 06:01:50;;;;;;;7.27;4.90;;;;;;;11.88;100.00;101666.31;5017292;28;20033;-77
2023/09/25 06:04:17;;;;;;;6.53;3.67;;;;;;;12.53;100.00;101658.97;5015628;28;20029;-75
2023/09/25 06:06:43;;;;;;;6.93;4.43;;;;;;;12.32;100.00;101570.06;5014329;28;20113;-76
2023/09/25 06:09:15;;;;;;;8.90;4.18;;;;;;;12.39;100.00;101560.44;5016320;28;20036;-76
2023/09/25 06:11:41;;;;;;;4.70;3.65;;;;;;;12.44;100.00;101544.72;5014477;28;20125;-76
2023/09/25 06:14:07;;;;;;;6.30;4.53;;;;;;;12.49;100.00;101502.25;5020111;28;20025;-76
2023/09/25 06:16:32;;;;;;;4.50;3.80;;;;;;;12.53;100.00;101511.66;5013685;28;20096;-75
2023/09/25 06:18:57;;;;;;;6.43;4.53;;;;;;;12.57;100.00;101505.00;5020190;28;20383;-76
2023/09/25 06:21:23;;;;;;;4.57;4.13;;;;;;;12.48;100.00;101543.44;5014197;28;20417;-76
2023/09/25 06:23:48;;;;;;;7.23;4.17;;;;;;;12.62;100.00;101523.28;5014065;28;20026;-76
2023/09/25 06:26:15;;;;;;;5.37;3.87;;;;;;;12.49;100.00;101498.75;5015475;28;20025;-77
2023/09/25 06:28:41;;;;;;;6.63;3.47;;;;;;;12.52;100.00;101475.16;5013396;28;20416;-76
2023/09/25 06:31:07;;;;;;;6.75;3.78;;;;;;;12.63;100.00;101487.44;5015108;28;20048;-77
2023/09/25 06:33:32;;;;;;;5.83;3.40;;;;;;;12.79;100.00;101498.25;5017884;28;20018;-76
2023/09/25 06:35:58;;;;;;;4.13;3.60;;;;;;;12.63;100.00;101445.41;5014605;28;20476;-76
2023/09/25 06:38:24;;;;;;;6.80;3.83;;;;;;;12.74;100.00;101479.16;5013938;28;20032;-76
2023/09/25 06:40:49;;;;;;;6.65;4.50;;;;;;;12.99;100.00;101509.56;5011176;28;20028;-76
2023/09/25 06:43:15;;;;;;;7.88;3.58;;;;;;;13.02;100.00;101433.38;5016037;28;20034;-76
2023/09/25 06:45:40;;;;;;;4.17;3.40;;;;;;;13.13;100.00;101451.00;5010358;28;20048;-76
2023/09/25 06:48:06;;;;;;;4.82;3.83;;;;;;;13.21;100.00;101416.19;5013651;28;20033;-76
2023/09/25 06:50:32;;;;;;;7.32;3.33;;;;;;;13.28;100.00;101436.03;5017948;28;20091;-77
2023/09/25 06:52:57;;;;;;;6.87;3.63;;;;;;;13.21;100.00;101416.19;5011607;28;20516;-76
2023/09/25 06:55:23;;;;;;;6.05;4.22;;;;;;;13.40;100.00;101417.78;5013372;28;20030;-76
2023/09/25 06:57:49;;;;;;;5.22;3.13;;;;;;;13.55;100.00;101428.69;5010132;28;20099;-76
2023/09/25 07:00:14;;;;;;;5.05;3.15;;;;;;;13.60;100.00;101380.72;5010659;28;20045;-76
2023/09/25 07:02:40;;;;;;;3.60;3.30;;;;;;;13.62;100.00;101350.03;5014003;28;20033;-76
2023/09/25 07:05:06;;;;;;;6.28;3.85;;;;;;;14.04;100.00;101424.19;5004196;28;20065;-76
2023/09/25 07:07:32;;;;;;;6.95;3.33;;;;;;;14.23;100.00;101310.19;5010298;28;20033;-76
2023/09/25 07:09:57;;;;;;;4.97;3.17;;;;;;;14.25;100.00;101226.78;5007703;28;20045;-75
2023/09/25 07:12:22;;;;;;;4.47;2.73;;;;;;;14.45;100.00;101200.31;5012830;28;20026;-76
2023/09/25 07:14:52;;;;;;;6.10;3.33;;;;;;;14.67;100.00;101258.66;5015211;28;20120;-76
2023/09/25 07:17:17;;;;;;;4.00;2.50;;;;;;;14.71;100.00;101141.72;5014382;28;20026;-76
2023/09/25 07:19:42;;;;;;;5.40;2.90;;;;;;;14.78;100.00;101126.53;5014154;28;20091;-76
2023/09/25 07:22:08;;;;;;;4.37;2.70;;;;;;;14.78;100.00;101133.78;5011851;28;20273;-76
2023/09/25 07:24:33;;;;;;;3.03;2.63;;;;;;;14.32;100.00;101099.66;5014500;28;20087;-76
2023/09/25 07:26:59;;;;;;;4.85;3.00;;;;;;;14.33;100.00;101149.69;5004391;28;20034;-75
2023/09/25 07:29:24;;;;;;;3.80;2.23;;;;;;;14.77;100.00;101221.66;5013165;28;20451;-76
2023/09/25 07:31:51;;;;;;;3.53;2.53;;;;;;;14.91;100.00;101181.53;5011188;28;20794;-76
2023/09/25 07:34:16;;;;;;;2.40;2.20;;;;;;;15.06;100.00;101152.84;5008467;28;20117;-76
2023/09/25 07:36:42;;;;;;;4.10;2.42;;;;;;;15.19;100.00;101091.22;5014229;28;20112;-76
2023/09/25 07:39:13;;;;;;;6.67;2.70;;;;;;;15.12;100.00;101052.63;5012225;28;20045;-76
2023/09/25 07:41:40;;;;;;;4.22;2.53;;;;;;;15.13;100.00;101083.06;5018153;28;20573;-76
2023/09/25 07:44:11;;;;;;;4.53;2.55;;;;;;;14.90;100.00;101014.03;5010535;28;20916;-75
2023/09/25 07:46:37;;;;;;;6.72;2.60;;;;;;;15.46;100.00;101080.81;5018135;28;20044;-77
2023/09/25 07:49:02;;;;;;;4.53;2.53;;;;;;;15.76;100.00;100933.59;5007573;28;20035;-76
2023/09/25 07:51:29;;;;;;;4.33;2.30;;;;;;;16.01;100.00;100877.50;5014493;28;20284;-76
2023/09/25 07:53:58;;;;;;;6.35;2.03;;;;;;;16.12;100.00;100864.53;5015401;28;20036;-76
2023/09/25 07:56:24;;;;;;;3.53;2.53;;;;;;;15.96;100.00;100741.78;5017064;28;20022;-76
2023/09/25 07:58:49;;;;;;;4.35;2.35;;;;;;;16.35;100.00;100886.66;5015089;28;20037;-76
2023/09/25 08:01:14;;;;;;;3.80;1.97;;;;;;;16.68;100.00;100716.19;5013990;28;20041;-76
2023/09/25 08:03:40;;;;;;;3.13;2.23;;;;;;;16.44;100.00;100777.69;5017606;28;20052;-76
2023/09/25 08:06:05;;;;;;;3.33;1.83;;;;;;;17.06;100.00;100880.19;5014334;28;20065;-76
2023/09/25 08:08:32;;;;;;;2.08;1.90;;;;;;;16.79;100.00;100764.16;5020960;28;20045;-76
2023/09/25 08:10:58;;;;;;;2.22;2.03;;;;;;;16.08;100.00;100558.94;5010624;28;20285;-76
2023/09/25 08:13:23;;;;;;;5.30;3.00;;;;;;;16.38;100.00;100815.38;5013731;28;20074;-76
2023/09/25 08:15:49;;;;;;;5.50;2.35;;;;;;;16.39;100.00;100734.34;5012722;28;20083;-76
2023/09/25 08:18:14;;;;;;;4.80;2.50;;;;;;;16.13;100.00;100685.72;5012861;28;20124;-76
2023/09/25 08:20:40;;;;;;;3.83;2.30;;;;;;;16.98;100.00;100864.22;5011480;28;20033;-76
2023/09/25 08:23:05;;;;;;;3.90;2.40;;;;;;;16.90;100.00;100721.47;4999852;28;20507;-76
2023/09/25 08:25:30;;;;;;;3.23;2.47;;;;;;;16.27;100.00;100791.69;5017613;28;20128;-76
2023/09/25 08:27:56;;;;;;;3.80;2.60;;;;;;;16.68;100.00;100923.75;5007458;28;20326;-75
2023/09/25 08:30:22;;;;;;;3.47;2.77;;;;;;;16.77;100.00;100914.47;5013206;28;20043;-76
2023/09/25 08:32:48;;;;;;;2.92;2.63;;;;;;;16.72;100.00;100849.56;5011898;28;20029;-76
2023/09/25 08:35:13;;;;;;;3.53;2.28;;;;;;;16.97;100.00;100787.84;5013056;28;20029;-76
2023/09/25 08:37:39;;;;;;;4.83;2.60;;;;;;;16.91;100.00;100804.03;5015372;28;20037;-76
2023/09/25 08:40:06;;;;;;;5.05;2.60;;;;;;;17.39;100.00;100863.28;5006629;28;20030;-76
2023/09/25 08:42:32;;;;;;;2.97;2.42;;;;;;;17.84;100.00;100728.53;5017118;28;20025;-76
2023/09/25 08:45:02;;;;;;;5.40;2.13;;;;;;;17.61;100.00;100702.81;5011375;28;20037;-76
2023/09/25 08:47:30;;;;;;;4.60;1.90;;;;;;;17.62;100.00;100515.50;5019099;28;20040;-76
2023/09/25 08:49:56;;;;;;;10.57;2.45;;;;;;;17.55;100.00;100678.50;5017459;28;20560;-76
2023/09/25 08:52:22;;;;;;;2.20;2.00;;;;;;;17.86;100.00;100704.84;5015214;28;20121;-76
2023/09/25 08:54:49;;;;;;;2.63;1.95;;;;;;;17.98;100.00;100594.28;5015524;28;20041;-76
2023/09/25 08:57:15;;;;;;;2.90;2.05;;;;;;;17.72;100.00;100714.81;4989620;28;20030;-76
2023/09/25 08:59:45;;;;;;;2.37;2.17;;;;;;;18.01;100.00;100567.69;5014418;28;20040;-76
2023/09/25 09:02:12;;;;;;;2.92;2.10;;;;;;;18.11;100.00;100586.94;5013912;28;20033;-77
2023/09/25 09:04:37;;;;;;;5.38;2.20;;;;;;;18.24;100.00;100668.97;5016124;28;20030;-76
2023/09/25 09:07:08;;;;;;;2.50;1.95;;;;;;;18.53;100.00;100700.84;5013759;28;20045;-76
2023/09/25 09:09:34;;;;;;;2.95;2.28;;;;;;;18.79;100.00;100396.19;5009576;28;20204;-76
2023/09/25 09:12:00;;;;;;;3.83;2.15;;;;;;;18.05;100.00;100250.19;5013660;28;20245;-76
2023/09/25 09:14:36;;;;;;;4.07;2.00;;;;;;;18.04;100.00;100567.25;5007649;28;20144;-76
2023/09/25 09:17:06;;;;;;;2.53;2.00;;;;;;;18.23;100.00;100560.06;5010204;28;20125;-76
2023/09/25 09:19:46;;;;;;;2.53;1.67;;;;;;;19.38;100.00;100784.41;5011938;28;20034;-76
2023/09/25 09:22:13;;;;;;;4.28;1.92;;;;;;;18.29;100.00;100266.56;5014598;28;20114;-75
2023/09/25 09:24:40;;;;;;;2.50;2.30;;;;;;;18.65;100.00;100614.47;5017023;28;20021;-76
2023/09/25 09:27:09;;;;;;;4.38;2.45;;;;;;;19.50;100.00;100529.19;5015789;28;20812;-76
2023/09/25 09:29:39;;;;;;;2.75;1.35;;;;;;;19.27;99.70;100297.97;5010102;28;20516;-76
2023/09/25 09:32:05;;;;;;;4.50;1.70;;;;;;;19.39;98.56;100250.09;5006502;28;20034;-76
2023/09/25 09:34:31;;;;;;;2.55;2.28;;;;;;;19.19;97.13;100139.47;5007936;28;20032;-75
2023/09/25 09:36:57;;;;;;;2.20;1.90;;;;;;;19.54;98.11;100359.84;5010510;28;20405;-76
2023/09/25 09:39:25;;;;;;;2.03;1.88;;;;;;;19.45;96.95;100248.34;5015492;28;20034;-76
2023/09/25 09:41:55;;;;;;;2.75;1.80;;;;;;;19.39;97.44;100277.19;5010347;28;20034;-76
2023/09/25 09:44:21;;;;;;;2.40;2.20;;;;;;;19.38;97.01;100307.16;5016539;28;20037;-75
2023/09/25 09:46:50;;;;;;;2.80;1.90;;;;;;;19.53;94.21;100087.47;5013970;28;20476;-75
2023/09/25 09:49:19;;;;;;;4.28;1.58;;;;;;;19.95;94.59;100277.75;5009194;28;20882;-75
2023/09/25 09:51:51;;;;;;;2.28;2.05;;;;;;;19.79;93.28;100138.41;5010912;28;20167;-76
2023/09/25 09:54:19;;;;;;;2.17;1.75;;;;;;;19.80;91.20;99969.44;5017350;28;20037;-75
2023/09/25 09:56:49;;;;;;;2.10;1.90;;;;;;;19.38;91.97;99976.97;5011633;28;20393;-75
2023/09/25 09:59:16;;;;;;;4.47;1.77;;;;;;;19.04;94.43;100119.34;5008906;28;20044;-75
2023/09/25 10:01:47;;;;;;;4.35;2.08;;;;;;;19.17;94.14;100181.34;5018476;28;20096;-76
2023/09/25 10:04:15;;;;;;;4.53;1.98;;;;;;;19.91;92.31;100235.09;5014208;28;20034;-75
2023/09/25 10:06:59;;;;;;;2.28;1.52;;;;;;;20.49;90.23;100208.97;5018202;28;20112;-75
2023/09/25 10:09:26;;;;;;;2.97;1.90;;;;;;;20.13;86.80;99740.25;5006345;28;20180;-75
2023/09/25 10:11:54;;;;;;;5.22;2.13;;;;;;;19.98;88.30;99941.31;5016703;28;20037;-75
2023/09/25 10:14:25;;;;;;;2.83;1.77;;;;;;;20.06;87.24;99845.25;5017252;28;20037;-76
2023/09/25 10:16:51;;;;;;;1.90;1.70;;;;;;;20.64;87.17;100028.38;5009790;28;20492;-75
2023/09/25 10:19:22;;;;;;;2.72;1.90;;;;;;;20.92;84.97;99915.41;5009078;28;20041;-75
2023/09/25 10:22:20;;;;;;;3.55;1.60;;;;;;;20.71;84.35;99832.13;5016524;28;20618;-75
2023/09/25 10:25:04;;;;;;;2.10;1.70;;;;;;;19.70;84.39;99635.38;5015495;28;20500;-75
2023/09/25 10:27:31;;;;;;;3.35;1.48;;;;;;;19.74;85.83;99853.97;5015221;28;20037;-75
2023/09/25 10:30:05;;;;;;;2.03;1.55;;;;;;;19.77;84.54;99725.38;5012776;28;20235;-75
2023/09/25 10:32:32;;;;;;;1.92;1.50;;;;;;;20.50;82.33;99776.78;5010698;28;20099;-75
2023/09/25 10:35:36;;;;;;;1.95;1.67;;;;;;;19.98;83.38;99791.50;5013571;28;20076;-75
2023/09/25 10:38:11;;;;;;;3.17;1.88;;;;;;;20.21;83.71;99880.75;5013022;28;20041;-75
2023/09/25 10:40:37;;;;;;;1.70;1.60;;;;;;;20.07;82.76;99756.69;5009449;28;20551;-74
2023/09/25 10:43:03;;;;;;;3.38;1.70;;;;;;;20.71;81.75;99867.38;5010394;28;20026;-75
2023/09/25 10:45:30;;;;;;;4.22;1.60;;;;;;;20.98;79.62;99705.50;5015122;28;20451;-75
2023/09/25 10:47:56;;;;;;;2.75;1.70;;;;;;;21.50;78.97;99821.66;5010985;28;20037;-75
2023/09/25 10:50:22;;;;;;;2.33;1.60;;;;;;;21.24;79.52;99869.41;5015625;28;20053;-75
2023/09/25 10:52:47;;;;;;;5.43;1.75;;;;;;;21.47;76.73;99596.81;5013963;28;20037;-75
2023/09/25 10:55:12;;;;;;;1.63;1.43;;;;;;;21.79;75.15;99544.25;5003356;28;20037;-75
2023/09/25 10:57:39;;;;;;;2.27;1.50;;;;;;;21.47;74.91;99455.63;5015115;28;20045;-75
2023/09/25 11:00:10;;;;;;;3.33;1.77;;;;;;;21.44;75.11;99521.28;5010216;28;20045;-75
2023/09/25 11:02:36;;;;;;;2.17;1.67;;;;;;;21.42;76.25;99653.78;5006421;28;20124;-75
2023/09/25 11:05:02;;;;;;;2.10;1.33;;;;;;;21.69;72.27;99261.75;5014592;28;20116;-75
2023/09/25 11:07:28;;;;;;;1.45;1.33;;;;;;;21.20;73.05;99230.47;5014492;28;20339;-74
2023/09/25 11:09:55;;;;;;;2.60;1.55;;;;;;;21.93;71.91;99379.66;5012047;28;20575;-75
2023/09/25 11:12:21;;;;;;;1.98;1.30;;;;;;;22.10;71.87;99485.41;5014348;28;20026;-75
2023/09/25 11:14:47;;;;;;;1.45;1.35;;;;;;;22.17;71.88;99506.88;5010503;28;20120;-75
2023/09/25 11:17:13;;;;;;;5.32;1.23;;;;;;;21.77;67.89;98783.19;5012210;28;20034;-75
2023/09/25 11:19:45;;;;;;;1.50;1.30;;;;;;;21.75;69.55;99153.91;5012306;28;20049;-75